createdAt,value
2023-03-16T00:01:23.561Z,102621.31
2023-03-16T00:06:28.422Z,102626.88
2023-03-16T00:11:33.254Z,102641.19
2023-03-16T00:16:38.121Z,102644.94
2023-03-16T00:21:42.858Z,102634.91
2023-03-16T00:26:48.659Z,102651.88
2023-03-16T00:31:53.476Z,102631.38
2023-03-16T00:36:58.219Z,102642.28
2023-03-16T00:42:05.737Z,102637.50
2023-03-16T00:47:15.394Z,102647.28
2023-03-16T00:52:20.606Z,102659.78
2023-03-16T00:57:29.923Z,102669.78
2023-03-16T01:02:38.272Z,102661.56
2023-03-16T01:07:44.258Z,102675.09
2023-03-16T01:12:50.002Z,102664.16
2023-03-16T01:17:55.684Z,102674.72
2023-03-16T01:23:00.523Z,102656.34
2023-03-16T01:28:05.354Z,102656.78
2023-03-16T01:33:10.414Z,102633.00
2023-03-16T01:38:16.498Z,102632.91
2023-03-16T01:43:27.146Z,102626.97
2023-03-16T01:48:44.259Z,102625.50
2023-03-16T01:53:54.339Z,102607.63
2023-03-16T01:59:02.211Z,102599.69
2023-03-16T02:04:16.072Z,102594.38
2023-03-16T02:09:22.018Z,102612.69
2023-03-16T02:14:28.008Z,102581.69
2023-03-16T02:20:02.019Z,102569.69
2023-03-16T02:25:07.340Z,102560.22
2023-03-16T02:30:15.252Z,102565.00
2023-03-16T02:35:35.820Z,102556.53
2023-03-16T02:40:41.069Z,102533.66
2023-03-16T02:46:09.263Z,102514.09
2023-03-16T02:51:14.859Z,102499.38
2023-03-16T02:56:22.103Z,102492.16
2023-03-16T03:01:27.893Z,102498.31
2023-03-16T03:06:33.570Z,102482.69
2023-03-16T03:11:40.712Z,102511.03
2023-03-16T03:16:47.883Z,102481.16
2023-03-16T03:21:53.780Z,102488.38
2023-03-16T03:26:59.988Z,102502.31
2023-03-16T03:32:06.245Z,102475.72
2023-03-16T03:37:11.149Z,102494.03
2023-03-16T03:42:19.590Z,102466.81
2023-03-16T03:47:24.428Z,102452.72
2023-03-16T03:52:30.409Z,102450.38
2023-03-16T03:57:34.690Z,102441.13
2023-03-16T04:02:42.114Z,102473.56
2023-03-16T04:07:58.849Z,102450.88
2023-03-16T04:13:03.958Z,102419.03
2023-03-16T04:18:11.269Z,102403.28
2023-03-16T04:23:17.957Z,102379.03
2023-03-16T04:28:27.623Z,102372.97
2023-03-16T04:33:33.579Z,102363.72
2023-03-16T04:38:38.514Z,102367.72
2023-03-16T04:43:44.473Z,102339.56
2023-03-16T04:48:59.525Z,102353.44
2023-03-16T04:54:06.415Z,102311.22
2023-03-16T04:59:14.297Z,102302.25
2023-03-16T05:04:25.910Z,102286.72
2023-03-16T05:09:30.727Z,102275.16
2023-03-16T05:14:38.088Z,102267.59
2023-03-16T05:20:03.336Z,102270.28
2023-03-16T05:25:10.820Z,102244.28
2023-03-16T05:30:18.246Z,102239.78
2023-03-16T05:35:25.034Z,102229.06
2023-03-16T05:40:34.294Z,102217.22
2023-03-16T05:45:49.495Z,102208.19
2023-03-16T05:50:56.929Z,102197.22
2023-03-16T05:56:08.202Z,102192.63
2023-03-16T06:01:18.730Z,102210.41
2023-03-16T06:06:24.815Z,102173.22
2023-03-16T06:11:39.751Z,102157.78
2023-03-16T06:16:46.148Z,102175.72
2023-03-16T06:21:52.589Z,102151.66
2023-03-16T06:26:58.350Z,102145.69
2023-03-16T06:32:10.545Z,102137.84
2023-03-16T06:37:16.828Z,102131.78
2023-03-16T06:42:22.568Z,102120.88
2023-03-16T06:47:28.503Z,102115.00
2023-03-16T06:52:33.298Z,102092.75
2023-03-16T06:57:38.193Z,102095.97
2023-03-16T07:02:44.959Z,102090.41
2023-03-16T07:07:51.814Z,102074.94
2023-03-16T07:12:58.396Z,102063.13
2023-03-16T07:18:03.977Z,102084.63
2023-03-16T07:23:09.648Z,102045.28
2023-03-16T07:28:14.740Z,102034.06
2023-03-16T07:33:22.167Z,102028.91
2023-03-16T07:38:27.557Z,102018.88
2023-03-16T07:43:34.210Z,102034.81
2023-03-16T07:48:39.156Z,102026.09
2023-03-16T07:53:44.363Z,102024.22
2023-03-16T07:58:55.358Z,102004.66
2023-03-16T08:04:01.574Z,101987.66
2023-03-16T08:09:07.360Z,102005.53
2023-03-16T08:14:15.692Z,102011.22
2023-03-16T08:19:40.151Z,102000.47
2023-03-16T08:24:47.143Z,101997.81
2023-03-16T08:29:57.195Z,102023.34
2023-03-16T08:35:03.841Z,102025.50
2023-03-16T08:40:12.959Z,102001.47
2023-03-16T08:45:21.199Z,102011.44
2023-03-16T08:50:27.454Z,101986.22
2023-03-16T08:55:32.383Z,101983.66
2023-03-16T09:00:37.715Z,101983.78
2023-03-16T09:05:44.560Z,101977.72
2023-03-16T09:10:50.115Z,101973.31
2023-03-16T09:15:55.457Z,101970.63
2023-03-16T09:21:04.981Z,101971.84
2023-03-16T09:26:11.717Z,101971.75
2023-03-16T09:31:21.463Z,101965.56
2023-03-16T09:36:26.847Z,101976.16
2023-03-16T09:41:46.415Z,101973.44
2023-03-16T09:46:53.452Z,101989.94
2023-03-16T09:52:15.036Z,101978.66
2023-03-16T09:57:36.823Z,101970.97
2023-03-16T10:03:02.710Z,101977.13
2023-03-16T10:08:24.369Z,101973.75
2023-03-16T10:13:52.429Z,101969.56
2023-03-16T10:19:10.292Z,101972.50
2023-03-16T10:24:28.705Z,101963.94
2023-03-16T10:29:38.209Z,101973.50
2023-03-16T10:34:44.735Z,101977.25
2023-03-16T10:39:51.226Z,101974.66
2023-03-16T10:45:03.242Z,101992.50
2023-03-16T10:50:18.095Z,101980.31
2023-03-16T10:55:27.645Z,101989.13
2023-03-16T11:00:38.407Z,101994.47
2023-03-16T11:05:43.107Z,101994.81
2023-03-16T11:10:56.377Z,101988.00
2023-03-16T11:16:28.782Z,101991.59
2023-03-16T11:21:56.450Z,101993.44
2023-03-16T11:27:09.907Z,101995.84
2023-03-16T11:32:30.957Z,102002.91
2023-03-16T11:38:12.920Z,102009.00
2023-03-16T11:43:42.879Z,102022.88
2023-03-16T11:48:54.991Z,102034.13
2023-03-16T11:54:15.901Z,102026.00
2023-03-16T12:00:01.574Z,102037.03
2023-03-16T12:05:24.389Z,102045.72
2023-03-16T12:10:54.012Z,102052.94
2023-03-16T12:16:06.957Z,102052.97
2023-03-16T12:21:43.633Z,102050.38
2023-03-16T12:26:50.845Z,102059.03
2023-03-16T12:32:09.629Z,102061.00
2023-03-16T12:37:24.839Z,102078.56
2023-03-16T12:43:02.646Z,102081.56
2023-03-16T12:48:32.051Z,102080.94
2023-03-16T12:53:47.992Z,102087.38
2023-03-16T12:58:53.114Z,102095.25
2023-03-16T13:04:20.589Z,102101.47
2023-03-16T13:09:32.649Z,102136.56
2023-03-16T13:14:41.857Z,102108.69
2023-03-16T13:20:08.997Z,102108.97
2023-03-16T13:25:30.371Z,102114.69
2023-03-16T13:30:37.829Z,102126.31
2023-03-16T13:35:43.305Z,102129.31
2023-03-16T13:40:55.240Z,102136.59
2023-03-16T13:46:00.519Z,102163.59
2023-03-16T13:51:05.486Z,102147.00
2023-03-16T13:56:14.867Z,102120.75
2023-03-16T14:01:34.585Z,102130.25
2023-03-16T14:06:39.824Z,102124.16
2023-03-16T14:11:49.694Z,102124.34
2023-03-16T14:16:55.958Z,102129.84
2023-03-16T14:22:05.440Z,102129.16
2023-03-16T14:27:27.907Z,102141.09
2023-03-16T14:32:34.650Z,102163.53
2023-03-16T14:37:39.829Z,102139.47
2023-03-16T14:42:45.436Z,102141.34
2023-03-16T14:47:52.509Z,102148.50
2023-03-16T14:52:58.711Z,102148.75
2023-03-16T14:58:03.665Z,102146.16
2023-03-16T15:03:13.050Z,102146.00
2023-03-16T15:08:32.560Z,102135.25
2023-03-16T15:13:54.221Z,102160.31
2023-03-16T15:18:58.966Z,102127.38
2023-03-16T15:24:03.920Z,102119.34
2023-03-16T15:29:11.041Z,102125.06
2023-03-16T15:34:15.848Z,102118.47
2023-03-16T15:39:27.458Z,102109.31
2023-03-16T15:44:32.326Z,102140.47
2023-03-16T15:49:46.610Z,102096.09
2023-03-16T15:54:51.708Z,102105.41
2023-03-16T15:59:56.320Z,102113.25
2023-03-16T16:05:02.855Z,102113.41
2023-03-16T16:10:09.788Z,102113.56
2023-03-16T16:15:38.158Z,102103.25
2023-03-16T16:20:42.959Z,102100.78
2023-03-16T16:25:49.299Z,102096.63
2023-03-16T16:30:54.725Z,102102.94
2023-03-16T16:36:01.841Z,102108.41
2023-03-16T16:41:11.622Z,102103.31
2023-03-16T16:46:25.128Z,102098.69
2023-03-16T16:51:32.705Z,102097.22
2023-03-16T16:56:39.798Z,102092.44
2023-03-16T17:01:44.976Z,102084.97
2023-03-16T17:06:49.743Z,102091.97
2023-03-16T17:11:57.245Z,102089.50
2023-03-16T17:17:06.132Z,102103.66
2023-03-16T17:22:23.933Z,102074.91
2023-03-16T17:27:32.537Z,102081.03
2023-03-16T17:32:37.558Z,102081.94
2023-03-16T17:37:43.865Z,102075.09
2023-03-16T17:42:50.790Z,102072.63
2023-03-16T17:47:57.483Z,102059.16
2023-03-16T17:53:02.260Z,102048.34
2023-03-16T17:58:07.853Z,102058.09
2023-03-16T18:03:18.568Z,102039.13
2023-03-16T18:08:31.114Z,102040.75
2023-03-16T18:13:41.309Z,102028.66
2023-03-16T18:18:46.071Z,102047.09
2023-03-16T18:23:52.497Z,102044.53
2023-03-16T18:28:57.637Z,102004.53
2023-03-16T18:34:06.530Z,102016.75
2023-03-16T18:39:19.105Z,102012.50
2023-03-16T18:44:27.776Z,102004.44
2023-03-16T18:49:36.246Z,101989.78
2023-03-16T18:54:40.926Z,101986.81
2023-03-16T18:59:45.850Z,101967.28
2023-03-16T19:04:52.112Z,101969.50
2023-03-16T19:09:57.229Z,101940.69
2023-03-16T19:15:01.898Z,101951.28
2023-03-16T19:20:06.604Z,101945.34
2023-03-16T19:25:18.537Z,101946.31
2023-03-16T19:30:30.519Z,101931.72
2023-03-16T19:35:50.809Z,101934.34
2023-03-16T19:41:02.215Z,101924.75
2023-03-16T19:46:07.181Z,101926.00
2023-03-16T19:51:19.233Z,101923.06
2023-03-16T19:56:26.768Z,101914.97
2023-03-16T20:01:34.761Z,101910.25
2023-03-16T20:06:39.420Z,101907.19
2023-03-16T20:11:44.139Z,101905.66
2023-03-16T20:16:49.453Z,101899.22
2023-03-16T20:21:53.457Z,101891.41
2023-03-16T20:26:58.445Z,101889.00
2023-03-16T20:32:04.838Z,101890.00
2023-03-16T20:37:31.921Z,101888.47
2023-03-16T20:42:38.103Z,101894.41
2023-03-16T20:47:43.504Z,101875.19
2023-03-16T20:52:49.127Z,101884.13
2023-03-16T20:57:55.279Z,101876.81
2023-03-16T21:03:00.908Z,101876.34
2023-03-16T21:08:06.542Z,101866.41
2023-03-16T21:13:36.399Z,101876.88
2023-03-16T21:18:41.358Z,101876.84
2023-03-16T21:23:48.290Z,101880.09
2023-03-16T21:29:03.570Z,101912.91
2023-03-16T21:34:19.952Z,101890.88
2023-03-16T21:39:26.150Z,101889.03
2023-03-16T21:44:31.226Z,101899.56
2023-03-16T21:49:36.359Z,101907.09
2023-03-16T21:54:41.634Z,101907.69
2023-03-16T21:59:46.947Z,101904.44
2023-03-16T22:04:54.690Z,101913.44
2023-03-16T22:10:00.568Z,101909.47
2023-03-16T22:15:06.518Z,101928.69
2023-03-16T22:20:27.575Z,101920.75
2023-03-16T22:25:32.760Z,101926.59
2023-03-16T22:30:37.969Z,101946.41
2023-03-16T22:35:43.323Z,101935.06
2023-03-16T22:40:48.619Z,101968.84
2023-03-16T22:45:57.578Z,101946.09
2023-03-16T22:51:06.141Z,101950.25
2023-03-16T22:56:13.289Z,101938.69
2023-03-16T23:01:20.152Z,101943.78
2023-03-16T23:06:28.374Z,101948.09
2023-03-16T23:11:38.372Z,101952.00
2023-03-16T23:16:45.755Z,101951.81
2023-03-16T23:21:51.336Z,101965.56
2023-03-16T23:26:58.295Z,101959.88
2023-03-16T23:32:05.495Z,101966.66
2023-03-16T23:37:11.399Z,101975.28
2023-03-16T23:42:17.516Z,101973.31
2023-03-16T23:47:22.688Z,101979.78
2023-03-16T23:52:28.978Z,101988.03
2023-03-16T23:57:35.541Z,101992.91
